createdAt,value
2023-04-20T00:01:22.252Z,15.00
2023-04-20T00:06:29.633Z,14.97
2023-04-20T00:11:31.819Z,14.93
2023-04-20T00:16:34.013Z,14.88
2023-04-20T00:21:35.933Z,14.79
2023-04-20T00:26:37.997Z,14.78
2023-04-20T00:31:39.968Z,14.70
2023-04-20T00:36:41.969Z,14.66
2023-04-20T00:41:43.990Z,14.63
2023-04-20T00:46:46.290Z,14.62
2023-04-20T00:51:48.404Z,14.59
2023-04-20T00:56:50.861Z,14.52
2023-04-20T01:05:13.843Z,14.47
2023-04-20T01:10:16.043Z,14.43
2023-04-20T01:15:17.866Z,14.35
2023-04-20T01:20:23.796Z,14.29
2023-04-20T01:25:28.905Z,14.25
2023-04-20T01:30:31.004Z,14.18
2023-04-20T01:35:33.000Z,14.14
2023-04-20T01:40:39.197Z,14.10
2023-04-20T01:45:46.294Z,14.06
2023-04-20T01:50:52.009Z,14.02
2023-04-20T01:55:56.975Z,13.97
2023-04-20T02:01:02.043Z,13.90
2023-04-20T02:06:05.013Z,13.86
2023-04-20T02:11:07.071Z,13.79
2023-04-20T02:16:14.832Z,13.76
2023-04-20T02:21:16.885Z,13.70
2023-04-20T02:30:23.262Z,13.60
2023-04-20T02:35:26.224Z,13.55
2023-04-20T02:40:28.309Z,13.53
2023-04-20T02:45:30.937Z,13.47
2023-04-20T02:50:35.354Z,13.42
2023-04-20T02:55:48.574Z,13.37
2023-04-20T03:01:02.763Z,13.31
2023-04-20T03:06:06.523Z,13.26
2023-04-20T03:11:09.266Z,13.19
2023-04-20T03:16:11.830Z,13.16
2023-04-20T03:21:19.229Z,13.12
2023-04-20T03:26:21.341Z,13.08
2023-04-20T03:31:45.511Z,13.00
2023-04-20T03:36:48.359Z,12.96
2023-04-20T03:41:50.239Z,12.88
2023-04-20T03:46:52.315Z,12.84
2023-04-20T03:51:54.440Z,12.76
2023-04-20T03:56:58.582Z,12.71
2023-04-20T04:07:33.576Z,12.71
2023-04-20T04:12:36.130Z,12.69
2023-04-20T04:17:38.574Z,12.67
2023-04-20T04:23:18.357Z,12.69
2023-04-20T04:29:06.505Z,12.67
2023-04-20T04:34:50.352Z,12.64
2023-04-20T04:39:52.775Z,12.64
2023-04-20T04:45:02.041Z,12.62
2023-04-20T04:50:07.610Z,12.64
2023-04-20T04:55:10.069Z,12.63
2023-04-20T05:00:12.799Z,12.58
2023-04-20T05:05:14.932Z,12.58
2023-04-20T05:10:17.201Z,12.58
2023-04-20T05:15:19.496Z,12.59
2023-04-20T05:20:21.649Z,12.58
2023-04-20T05:25:23.748Z,12.60
2023-04-20T05:30:28.399Z,12.61
2023-04-20T05:35:30.925Z,12.62
2023-04-20T05:40:37.314Z,12.66
2023-04-20T05:45:39.396Z,12.69
2023-04-20T05:50:42.126Z,12.74
2023-04-20T05:55:44.063Z,12.80
2023-04-20T06:00:46.328Z,12.85
2023-04-20T06:05:48.551Z,12.89
2023-04-20T06:10:57.306Z,12.91
2023-04-20T06:15:59.340Z,13.00
2023-04-20T06:21:02.185Z,13.07
2023-04-20T06:26:04.990Z,13.17
2023-04-20T06:31:07.213Z,13.23
2023-04-20T06:36:09.295Z,13.32
2023-04-20T06:41:11.736Z,13.42
2023-04-20T06:46:13.737Z,13.54
2023-04-20T06:51:15.822Z,13.80
2023-04-20T06:56:17.900Z,14.20
2023-04-20T07:01:19.885Z,14.63
2023-04-20T07:06:22.112Z,15.09
2023-04-20T07:11:24.261Z,15.50
2023-04-20T07:16:26.371Z,15.92
2023-04-20T07:21:28.211Z,16.28
2023-04-20T07:26:30.289Z,16.61
2023-04-20T07:31:34.189Z,16.85
2023-04-20T07:36:39.227Z,17.10
2023-04-20T07:41:41.256Z,17.37
2023-04-20T07:46:43.179Z,17.59
2023-04-20T07:51:45.556Z,17.82
2023-04-20T07:56:47.768Z,18.02
2023-04-20T08:01:50.542Z,18.21
2023-04-20T08:06:52.694Z,18.42
2023-04-20T08:11:54.510Z,18.57
2023-04-20T08:16:56.514Z,18.75
2023-04-20T08:21:59.032Z,18.93
2023-04-20T08:27:01.724Z,19.14
2023-04-20T08:32:04.900Z,19.30
2023-04-20T08:37:07.258Z,19.40
2023-04-20T08:42:09.502Z,19.52
2023-04-20T08:47:12.089Z,19.55
2023-04-20T08:52:14.204Z,19.47
2023-04-20T08:57:16.236Z,19.43
2023-04-20T09:02:18.294Z,19.47
2023-04-20T09:07:21.693Z,19.34
2023-04-20T09:12:24.859Z,19.27
2023-04-20T09:17:39.427Z,19.48
2023-04-20T09:22:41.468Z,19.48
2023-04-20T09:27:43.302Z,19.43
2023-04-20T09:32:47.348Z,19.29
2023-04-20T09:37:49.646Z,19.18
2023-04-20T09:42:53.604Z,19.11
2023-04-20T09:47:56.294Z,19.08
2023-04-20T09:53:00.271Z,19.02
2023-04-20T09:58:04.408Z,18.93
2023-04-20T10:03:09.109Z,19.05
2023-04-20T10:08:11.503Z,19.12
2023-04-20T10:13:14.423Z,19.25
2023-04-20T10:18:26.681Z,19.29
2023-04-20T10:23:28.760Z,19.17
2023-04-20T10:28:41.624Z,19.29
2023-04-20T10:33:54.868Z,19.11
2023-04-20T10:38:58.214Z,19.06
2023-04-20T10:44:09.891Z,19.14
2023-04-20T10:49:12.036Z,18.92
2023-04-20T10:54:15.380Z,18.81
2023-04-20T10:59:21.521Z,18.82
2023-04-20T11:04:32.441Z,18.82
2023-04-20T11:09:35.691Z,18.95
2023-04-20T11:14:40.274Z,19.15
2023-04-20T11:19:42.332Z,19.01
2023-04-20T11:24:44.327Z,18.77
2023-04-20T11:29:46.658Z,18.54
2023-04-20T11:35:06.063Z,18.39
2023-04-20T11:40:10.192Z,18.49
2023-04-20T11:45:12.939Z,18.73
2023-04-20T11:50:15.312Z,18.89
2023-04-20T11:55:17.507Z,18.68
2023-04-20T12:00:20.540Z,18.63
2023-04-20T12:05:23.151Z,18.71
2023-04-20T12:10:25.332Z,18.64
2023-04-20T12:15:27.818Z,18.67
2023-04-20T12:20:29.886Z,18.67
2023-04-20T12:25:32.348Z,18.86
2023-04-20T12:30:37.944Z,19.19
2023-04-20T12:35:39.925Z,19.28
2023-04-20T12:40:42.028Z,19.11
2023-04-20T12:45:44.125Z,19.05
2023-04-20T12:50:46.308Z,19.16
2023-04-20T12:55:52.994Z,18.98
2023-04-20T13:00:59.726Z,18.81
2023-04-20T13:06:01.699Z,18.56
2023-04-20T13:11:04.305Z,18.50
2023-04-20T13:16:06.930Z,18.40
2023-04-20T13:21:12.298Z,18.41
2023-04-20T13:26:14.558Z,18.41
2023-04-20T13:31:17.812Z,18.56
2023-04-20T13:36:24.393Z,18.56
2023-04-20T13:41:26.578Z,18.32
2023-04-20T13:46:29.615Z,18.29
2023-04-20T13:51:31.771Z,18.30
2023-04-20T13:56:34.740Z,18.55
2023-04-20T14:01:41.548Z,18.62
2023-04-20T14:06:43.650Z,18.59
2023-04-20T14:11:46.328Z,18.56
2023-04-20T14:16:49.409Z,18.59
2023-04-20T14:21:51.746Z,18.61
2023-04-20T14:26:54.399Z,18.58
2023-04-20T14:31:56.524Z,18.56
2023-04-20T14:36:58.670Z,18.62
2023-04-20T14:42:01.213Z,18.78
2023-04-20T14:47:03.552Z,18.91
2023-04-20T14:52:05.613Z,18.91
2023-04-20T14:57:07.540Z,18.87
2023-04-20T15:02:09.425Z,18.90
2023-04-20T15:07:11.652Z,18.83
2023-04-20T15:12:13.821Z,18.83
2023-04-20T15:17:15.950Z,18.87
2023-04-20T15:22:19.100Z,18.91
2023-04-20T15:27:21.083Z,18.59
2023-04-20T15:32:23.286Z,18.36
2023-04-20T15:37:25.404Z,18.30
2023-04-20T15:42:27.672Z,18.15
2023-04-20T15:47:29.715Z,18.12
2023-04-20T15:52:32.657Z,18.17
2023-04-20T15:57:34.677Z,18.17
2023-04-20T16:02:40.168Z,18.06
2023-04-20T16:07:42.445Z,17.94
2023-04-20T16:12:44.520Z,17.80
2023-04-20T16:17:46.670Z,17.72
2023-04-20T16:22:48.617Z,17.62
2023-04-20T16:27:51.617Z,17.55
2023-04-20T16:32:53.852Z,17.52
2023-04-20T16:37:56.516Z,17.58
2023-04-20T16:42:58.780Z,17.61
2023-04-20T16:48:01.015Z,17.58
2023-04-20T16:53:03.836Z,17.38
2023-04-20T16:58:06.078Z,17.23
2023-04-20T17:03:10.673Z,17.14
2023-04-20T17:08:13.047Z,17.17
2023-04-20T17:13:15.540Z,17.28
2023-04-20T17:18:17.446Z,17.37
2023-04-20T17:23:19.599Z,17.48
2023-04-20T17:28:21.646Z,17.55
2023-04-20T17:33:23.472Z,17.57
2023-04-20T17:38:25.633Z,17.58
2023-04-20T17:43:27.653Z,17.52
2023-04-20T17:48:29.580Z,17.48
2023-04-20T17:53:31.590Z,17.51
2023-04-20T17:58:33.468Z,17.48
2023-04-20T18:03:35.803Z,17.32
2023-04-20T18:08:37.941Z,17.20
2023-04-20T18:13:40.093Z,17.11
2023-04-20T18:18:42.163Z,17.07
2023-04-20T18:23:43.943Z,17.08
2023-04-20T18:28:49.115Z,16.99
2023-04-20T18:35:47.834Z,16.91
2023-04-20T18:40:49.704Z,16.78
2023-04-20T18:45:51.643Z,16.70
2023-04-20T18:50:53.833Z,16.70
2023-04-20T18:55:59.200Z,16.70
2023-04-20T19:01:03.580Z,16.66
2023-04-20T19:06:08.368Z,16.62
2023-04-20T19:11:10.213Z,16.59
2023-04-20T19:16:12.618Z,16.50
2023-04-20T19:21:15.577Z,16.47
2023-04-20T19:26:18.214Z,16.46
2023-04-20T19:31:20.428Z,16.44
2023-04-20T19:36:23.352Z,16.43
2023-04-20T19:41:26.228Z,16.37
2023-04-20T19:46:28.273Z,16.32
2023-04-20T19:51:31.488Z,16.34
2023-04-20T19:56:34.735Z,16.34
2023-04-20T20:01:36.909Z,16.37
2023-04-20T20:06:38.987Z,16.35
2023-04-20T20:11:42.165Z,16.34
2023-04-20T20:16:44.389Z,16.27
2023-04-20T20:21:46.374Z,16.24
2023-04-20T20:26:48.249Z,16.29
2023-04-20T20:31:50.209Z,16.32
2023-04-20T20:36:53.359Z,16.38
2023-04-20T20:41:58.263Z,16.39
2023-04-20T20:47:00.908Z,16.38
2023-04-20T20:52:03.132Z,16.39
2023-04-20T20:57:05.338Z,16.40
2023-04-20T21:02:07.479Z,16.36
2023-04-20T21:07:09.440Z,16.38
2023-04-20T21:12:11.426Z,16.39
2023-04-20T21:17:13.256Z,16.43
2023-04-20T21:22:15.291Z,16.44
2023-04-20T21:27:17.175Z,16.47
2023-04-20T21:32:19.266Z,16.45
2023-04-20T21:37:21.129Z,16.47
2023-04-20T21:42:23.118Z,16.45
2023-04-20T21:47:25.031Z,16.46
2023-04-20T21:52:27.170Z,16.45
2023-04-20T21:57:29.088Z,16.46
2023-04-20T22:02:31.226Z,16.44
2023-04-20T22:07:33.455Z,16.45
2023-04-20T22:12:40.428Z,16.44
2023-04-20T22:17:46.741Z,16.43
2023-04-20T22:22:48.992Z,16.42
2023-04-20T22:27:51.015Z,16.41
2023-04-20T22:32:53.190Z,16.42
2023-04-20T22:37:55.672Z,16.40
2023-04-20T22:42:57.807Z,16.40
2023-04-20T22:47:59.947Z,16.38
2023-04-20T22:53:02.033Z,16.36
2023-04-20T22:58:03.975Z,16.36
2023-04-20T23:03:06.363Z,16.34
2023-04-20T23:08:09.581Z,16.32
2023-04-20T23:13:17.197Z,16.30
2023-04-20T23:18:19.254Z,16.29
2023-04-20T23:23:21.282Z,16.26
2023-04-20T23:28:23.384Z,16.23
2023-04-20T23:33:25.448Z,16.24
2023-04-20T23:38:27.498Z,16.23
2023-04-20T23:43:29.360Z,16.22
2023-04-20T23:48:31.606Z,16.18
2023-04-20T23:53:37.447Z,16.18
2023-04-20T23:58:39.573Z,16.17
